This is the latest recevied weather packets stored in our database for station/object N4OGP-WX. If no packets are shown the sender has not sent any weather packets the latest 10 day(s).
| Time | Temp. | Humidity | Pressure | Rain* | Wind** | Luminosity | Snow |
|---|---|---|---|---|---|---|---|
| 1777492729 | 27.22° C | 80% | 1010.8 hPa | 0 mm | - | - | - |
| 1777492669 | 23.89° C | 42% | 1020.4 hPa | 0 mm | - | - | - |
| 1777492609 | 27.78° C | 79% | 1010.8 hPa | 0 mm | - | - | - |
| 1777492549 | 23.89° C | 42% | 1020.4 hPa | 0 mm | - | - | - |
| 1777492489 | 27.78° C | 78% | 1010.8 hPa | 0 mm | - | - | - |
| 1777492429 | 23.89° C | 42% | 1020.4 hPa | 0 mm | - | - | - |
| 1777492369 | 27.78° C | 77% | 1010.9 hPa | 0 mm | - | - | - |
| 1777492309 | 23.89° C | 42% | 1020.4 hPa | 0 mm | - | - | - |
| 1777492249 | 23.89° C | 42% | 1020.4 hPa | 0 mm | - | - | - |
| 1777492189 | 27.78° C | 77% | 1011 hPa | 0 mm | - | - | - |
| 1777492129 | 27.78° C | 77% | 1011.1 hPa | 0 mm | - | - | - |
| 1777492039 | 23.89° C | 42% | 1020.4 hPa | 0 mm | - | - | - |
| 1777491979 | 27.22° C | 78% | 1011.1 hPa | 0 mm | - | - | - |
| 1777491919 | 23.89° C | 42% | 1020.4 hPa | 0 mm | - | - | - |
| 1777491859 | 27.22° C | 78% | 1011.1 hPa | 0 mm | - | - | - |
| 1777491799 | 23.89° C | 42% | 1020.4 hPa | 0 mm | - | - | - |
| 1777491739 | 26.67° C | 80% | 1011.2 hPa | 0 mm | - | - | - |
| 1777491679 | 26.67° C | 80% | 1011.2 hPa | 0 mm | - | - | - |
| 1777491619 | 23.89° C | 42% | 1020.4 hPa | 0 mm | - | - | - |
| 1777491559 | 26.67° C | 80% | 1011.3 hPa | 0 mm | - | - | - |
| 1777491499 | 23.89° C | 42% | 1020.4 hPa | 0 mm | - | - | - |
| 1777491439 | 26.67° C | 80% | 1011.3 hPa | 0 mm | - | - | - |
| 1777491349 | 26.67° C | 79% | 1011.5 hPa | 0 mm | - | - | - |
| 1777491289 | 23.89° C | 42% | 1020.4 hPa | 0 mm | - | - | - |
| 1777491229 | 26.67° C | 80% | 1011.5 hPa | 0 mm | - | - | - |
* Rain latest hour (hover to see other rain measurements)
** Current wind speed in m/s (hover to see current wind gust speed)